Time;durP1;ratioP1;P1;durP2;ratioP2;P2;SDS_P1;SDS_P2;PMS_P1;PMS_P2;Temp;Humidity;BMP_temperature;BMP_pressure;BME280_temperature;BME280_humidity;BME280_pressure;Samples;Min_cycle;Max_cycle;Signal;HPM_P1;HPM_P2
2022/03/22 00:00:20;;;;;;;;;;;;;;;;;;5032073;28;19959;-62
2022/03/22 00:02:48;;;;;;;;;;;;;;;;;;5031328;28;19972;-63
2022/03/22 00:05:15;;;;;;;;;;;;;;;;;;5031021;28;20060;-63
2022/03/22 00:07:41;;;;;;;;;;;;;;;;;;5030563;28;19958;-62
2022/03/22 00:10:08;;;;;;;;;;;;;;;;;;5031328;28;20354;-64
2022/03/22 00:12:36;;;;;;;;;;;;;;;;;;5029796;28;19974;-62
2022/03/22 00:15:02;;;;;;;;;;;;;;;;;;5029845;28;19974;-63
2022/03/22 00:17:28;;;;;;;;;;;;;;;;;;5029622;28;19948;-62
2022/03/22 00:19:56;;;;;;;;;;;;;;;;;;5029484;28;19962;-62
2022/03/22 00:22:24;;;;;;;;;;;;;;;;;;5029562;28;20059;-61
2022/03/22 00:24:51;;;;;;;;;;;;;;;;;;5029597;28;19984;-61
2022/03/22 00:27:20;;;;;;;;;;;;;;;;;;5029788;28;19944;-61
2022/03/22 00:29:46;;;;;;;;;;;;;;;;;;5029563;28;19970;-62
2022/03/22 00:32:12;;;;;;;;;;;;;;;;;;5029474;28;19957;-61
2022/03/22 00:34:44;;;;;;;;;;;;;;;;;;5029142;28;19976;-59
2022/03/22 00:37:13;;;;;;;;;;;;;;;;;;5029841;28;19979;-61
2022/03/22 00:39:40;;;;;;;;;;;;;;;;;;5030423;28;19961;-58
2022/03/22 00:42:06;;;;;;;;;;;;;;;;;;5033330;28;19951;-59
2022/03/22 00:44:32;;;;;;;;;;;;;;;;;;5033444;28;19969;-58
2022/03/22 00:46:59;;;;;;;;;;;;;;;;;;5030424;28;19948;-59
2022/03/22 00:49:28;;;;;;;;;;;;;;;;;;5032935;28;19974;-59
2022/03/22 00:51:54;;;;;;;;;;;;;;;;;;5032627;28;19958;-59
2022/03/22 00:54:21;;;;;;;;;;;;;;;;;;5032967;28;20059;-58
2022/03/22 00:56:48;;;;;;;;;;;;;;;;;;5032971;28;20004;-59
2022/03/22 01:01:58;;;;;;;;;;;;;;;;;;5032503;28;19941;-58
2022/03/22 01:04:26;;;;;;;;;;;;;;;;;;5032836;28;19984;-58
2022/03/22 01:06:53;;;;;;;;;;;;;;;;;;5032615;28;19992;-58
2022/03/22 01:09:19;;;;;;;;;;;;;;;;;;5032615;28;19979;-57
2022/03/22 01:11:51;;;;;;;;;;;;;;;;;;5032479;28;20441;-58
2022/03/22 01:14:17;;;;;;;;;;;;;;;;;;5032986;28;19974;-59
2022/03/22 01:16:48;;;;;;;;;;;;;;;;;;5032955;28;19955;-62
2022/03/22 01:19:15;;;;;;;;;;;;;;;;;;5032502;28;19960;-62
2022/03/22 01:21:43;;;;;;;;;;;;;;;;;;5032524;28;19952;-62
2022/03/22 01:24:09;;;;;;;;;;;;;;;;;;5032154;28;20061;-62
2022/03/22 01:26:36;;;;;;;;;;;;;;;;;;5032472;28;19987;-60
2022/03/22 01:29:03;;;;;;;;;;;;;;;;;;5032101;28;20508;-60
2022/03/22 01:31:30;;;;;;;;;;;;;;;;;;5032581;28;19997;-61
2022/03/22 01:33:56;;;;;;;;;;;;;;;;;;5032073;28;20051;-60
2022/03/22 01:36:22;;;;;;;;;;;;;;;;;;5032447;28;20450;-59
2022/03/22 01:38:49;;;;;;;;;;;;;;;;;;5031857;28;19978;-62
2022/03/22 01:41:15;;;;;;;;;;;;;;;;;;5032510;28;19966;-59
2022/03/22 01:43:41;;;;;;;;;;;;;;;;;;5032042;28;20490;-59
2022/03/22 01:46:07;;;;;;;;;;;;;;;;;;5028472;28;20409;-60
2022/03/22 01:48:36;;;;;;;;;;;;;;;;;;5031759;28;19958;-60
2022/03/22 01:51:05;;;;;;;;;;;;;;;;;;5031674;28;19954;-60
2022/03/22 01:53:31;;;;;;;;;;;;;;;;;;5031331;28;20002;-59
2022/03/22 01:55:57;;;;;;;;;;;;;;;;;;5032393;28;19974;-60
2022/03/22 01:58:24;;;;;;;;;;;;;;;;;;5031651;28;19958;-59
2022/03/22 02:05:51;;;;;;;;;;;;;;;;;;5031876;28;19985;-59
2022/03/22 02:06:23;;;;;;;;;;;;;;;;;;5031827;28;20376;-60
2022/03/22 02:08:49;;;;;;;;;;;;;;;;;;5031333;28;20163;-60
2022/03/22 02:11:16;;;;;;;;;;;;;;;;;;5031775;28;19959;-60
2022/03/22 02:13:42;;;;;;;;;;;;;;;;;;5031503;28;19974;-60
2022/03/22 02:16:09;;;;;;;;;;;;;;;;;;5031611;28;20687;-59
2022/03/22 02:18:40;;;;;;;;;;;;;;;;;;5031636;28;19963;-59
2022/03/22 02:21:09;;;;;;;;;;;;;;;;;;5032455;28;20440;-59
2022/03/22 02:23:35;;;;;;;;;;;;;;;;;;5018779;28;20334;-59
2022/03/22 02:26:01;;;;;;;;;;;;;;;;;;5031297;28;20334;-60
2022/03/22 02:28:30;;;;;;;;;;;;;;;;;;5030844;28;20242;-60
2022/03/22 02:30:59;;;;;;;;;;;;;;;;;;5031539;28;20004;-59
2022/03/22 02:33:26;;;;;;;;;;;;;;;;;;5030803;28;20305;-59
2022/03/22 02:35:53;;;;;;;;;;;;;;;;;;5031610;28;20036;-59
2022/03/22 02:38:19;;;;;;;;;;;;;;;;;;5031161;28;19974;-58
2022/03/22 02:40:45;;;;;;;;;;;;;;;;;;5030990;28;19986;-60
2022/03/22 02:43:11;;;;;;;;;;;;;;;;;;5030811;28;20362;-59
2022/03/22 02:45:38;;;;;;;;;;;;;;;;;;5031072;28;19965;-58
2022/03/22 02:48:06;;;;;;;;;;;;;;;;;;5027815;28;19956;-59
2022/03/22 02:50:32;;;;;;;;;;;;;;;;;;5030464;28;20030;-58
2022/03/22 02:53:00;;;;;;;;;;;;;;;;;;5029812;28;20428;-59
2022/03/22 02:55:26;;;;;;;;;;;;;;;;;;5030636;28;20064;-59
2022/03/22 02:57:52;;;;;;;;;;;;;;;;;;5030928;28;19963;-64
2022/03/22 03:00:18;;;;;;;;;;;;;;;;;;5031031;28;19929;-66
2022/03/22 03:02:44;;;;;;;;;;;;;;;;;;5030017;28;20254;-65
2022/03/22 03:05:11;;;;;;;;;;;;;;;;;;5030799;28;19982;-64
2022/03/22 03:07:37;;;;;;;;;;;;;;;;;;5030952;28;19961;-65
2022/03/22 03:10:03;;;;;;;;;;;;;;;;;;5031071;28;20042;-65
2022/03/22 03:12:29;;;;;;;;;;;;;;;;;;5031160;28;19978;-65
2022/03/22 03:14:55;;;;;;;;;;;;;;;;;;5030420;28;19975;-65
2022/03/22 03:17:23;;;;;;;;;;;;;;;;;;5027755;28;20298;-65
2022/03/22 03:19:49;;;;;;;;;;;;;;;;;;5030143;28;19956;-65
2022/03/22 03:22:15;;;;;;;;;;;;;;;;;;5030317;28;19960;-66
2022/03/22 03:24:41;;;;;;;;;;;;;;;;;;5030346;28;19972;-65
2022/03/22 03:27:07;;;;;;;;;;;;;;;;;;5030480;28;19958;-65
2022/03/22 03:29:33;;;;;;;;;;;;;;;;;;5030424;28;19965;-65
2022/03/22 03:32:00;;;;;;;;;;;;;;;;;;5030158;28;19959;-59
2022/03/22 03:34:26;;;;;;;;;;;;;;;;;;5029860;28;19992;-58
2022/03/22 03:36:52;;;;;;;;;;;;;;;;;;5029926;28;19957;-58
2022/03/22 03:39:18;;;;;;;;;;;;;;;;;;5030415;28;19979;-58
2022/03/22 03:41:58;;;;;;;;;;;;;;;;;;5029954;28;19972;-58
2022/03/22 03:47:14;;;;;;;;;;;;;;;;;;5029588;28;19960;-59
2022/03/22 03:49:40;;;;;;;;;;;;;;;;;;5029984;28;19981;-59
2022/03/22 03:52:06;;;;;;;;;;;;;;;;;;5029878;28;19977;-58
2022/03/22 03:54:34;;;;;;;;;;;;;;;;;;5029874;28;20466;-58
2022/03/22 03:57:00;;;;;;;;;;;;;;;;;;5029716;28;19968;-60
2022/03/22 03:59:27;;;;;;;;;;;;;;;;;;5029913;28;20434;-58
2022/03/22 04:01:53;;;;;;;;;;;;;;;;;;5029201;28;19976;-59
2022/03/22 04:04:19;;;;;;;;;;;;;;;;;;5029809;28;19996;-59
2022/03/22 04:06:47;;;;;;;;;;;;;;;;;;5029589;28;19982;-59
2022/03/22 04:09:13;;;;;;;;;;;;;;;;;;5029443;28;19982;-58
2022/03/22 04:11:39;;;;;;;;;;;;;;;;;;5029321;28;19985;-57
2022/03/22 04:14:06;;;;;;;;;;;;;;;;;;5031766;28;19993;-56
2022/03/22 04:16:32;;;;;;;;;;;;;;;;;;5033760;28;20163;-56
2022/03/22 04:19:01;;;;;;;;;;;;;;;;;;5033368;28;19967;-55
2022/03/22 04:21:28;;;;;;;;;;;;;;;;;;5033470;28;20425;-56
2022/03/22 04:23:54;;;;;;;;;;;;;;;;;;5033616;28;19991;-56
2022/03/22 04:26:20;;;;;;;;;;;;;;;;;;5033530;28;20477;-57
2022/03/22 04:34:14;;;;;;;;;;;;;;;;;;5033563;28;19976;-57
2022/03/22 04:36:40;;;;;;;;;;;;;;;;;;5033563;28;19975;-56
2022/03/22 04:39:06;;;;;;;;;;;;;;;;;;5033138;28;20435;-56
2022/03/22 04:41:32;;;;;;;;;;;;;;;;;;5033285;28;19972;-59
2022/03/22 04:44:01;;;;;;;;;;;;;;;;;;5033768;28;19992;-60
2022/03/22 04:46:27;;;;;;;;;;;;;;;;;;5033446;28;20061;-59
2022/03/22 04:48:54;;;;;;;;;;;;;;;;;;5033552;28;20451;-59
2022/03/22 04:56:48;;;;;;;;;;;;;;;;;;5026098;28;19969;-58
2022/03/22 04:59:19;;;;;;;;;;;;;;;;;;5023228;28;19985;-60
2022/03/22 05:01:45;;;;;;;;;;;;;;;;;;5031362;28;19968;-61
2022/03/22 05:04:20;;;;;;;;;;;;;;;;;;5031622;28;19990;-58
2022/03/22 05:06:46;;;;;;;;;;;;;;;;;;5032188;28;19973;-58
2022/03/22 05:09:13;;;;;;;;;;;;;;;;;;5031882;28;19972;-59
2022/03/22 05:11:39;;;;;;;;;;;;;;;;;;5032177;28;20510;-59
2022/03/22 05:14:05;;;;;;;;;;;;;;;;;;5031973;28;20005;-60
2022/03/22 05:16:31;;;;;;;;;;;;;;;;;;5031995;28;19973;-64
2022/03/22 05:18:58;;;;;;;;;;;;;;;;;;5027027;28;19972;-65
2022/03/22 05:21:24;;;;;;;;;;;;;;;;;;5027305;28;20461;-61
2022/03/22 05:23:50;;;;;;;;;;;;;;;;;;5031241;28;19998;-61
2022/03/22 05:26:16;;;;;;;;;;;;;;;;;;5030550;28;19977;-61
2022/03/22 05:28:42;;;;;;;;;;;;;;;;;;5031418;28;19968;-61
2022/03/22 05:31:09;;;;;;;;;;;;;;;;;;5031700;28;19998;-61
2022/03/22 05:33:36;;;;;;;;;;;;;;;;;;5031072;28;20122;-63
2022/03/22 05:36:04;;;;;;;;;;;;;;;;;;5031805;28;20393;-61
2022/03/22 05:38:30;;;;;;;;;;;;;;;;;;5031110;28;19975;-61
2022/03/22 05:40:56;;;;;;;;;;;;;;;;;;5031102;28;19957;-61
2022/03/22 05:43:24;;;;;;;;;;;;;;;;;;5031143;28;19983;-62
2022/03/22 05:45:51;;;;;;;;;;;;;;;;;;5031217;28;19961;-61
2022/03/22 05:48:17;;;;;;;;;;;;;;;;;;5028699;28;20431;-59
2022/03/22 05:50:43;;;;;;;;;;;;;;;;;;5028599;28;20518;-61
2022/03/22 05:53:10;;;;;;;;;;;;;;;;;;5030575;28;20323;-61
2022/03/22 05:55:36;;;;;;;;;;;;;;;;;;5030135;28;20129;-61
2022/03/22 05:58:03;;;;;;;;;;;;;;;;;;5030915;28;20018;-61
2022/03/22 06:00:29;;;;;;;;;;;;;;;;;;5030598;28;19976;-70
2022/03/22 06:02:56;;;;;;;;;;;;;;;;;;5030303;28;20412;-66
2022/03/22 06:05:22;;;;;;;;;;;;;;;;;;5030678;28;20276;-69
2022/03/22 06:07:48;;;;;;;;;;;;;;;;;;5030832;28;20213;-69
2022/03/22 06:10:14;;;;;;;;;;;;;;;;;;5030721;28;19970;-69
2022/03/22 06:12:41;;;;;;;;;;;;;;;;;;5030875;28;19987;-69
2022/03/22 06:15:16;;;;;;;;;;;;;;;;;;5030942;28;20369;-68
2022/03/22 06:17:43;;;;;;;;;;;;;;;;;;5030397;28;20353;-67
2022/03/22 06:20:09;;;;;;;;;;;;;;;;;;4330201;28;10000798;-68
2022/03/22 06:22:35;;;;;;;;;;;;;;;;;;5027401;28;20060;-68
2022/03/22 06:25:01;;;;;;;;;;;;;;;;;;5027678;28;20034;-67
2022/03/22 06:27:28;;;;;;;;;;;;;;;;;;5028151;28;19975;-68
2022/03/22 06:29:54;;;;;;;;;;;;;;;;;;5027734;28;20463;-67
2022/03/22 06:32:21;;;;;;;;;;;;;;;;;;5016078;28;20499;-67
2022/03/22 06:34:47;;;;;;;;;;;;;;;;;;5022871;28;20252;-68
2022/03/22 06:37:13;;;;;;;;;;;;;;;;;;5024062;28;20018;-68
2022/03/22 06:39:40;;;;;;;;;;;;;;;;;;5026649;28;20443;-68
2022/03/22 06:42:06;;;;;;;;;;;;;;;;;;5027661;28;20063;-68
2022/03/22 06:44:32;;;;;;;;;;;;;;;;;;5027426;28;19994;-67
2022/03/22 06:46:59;;;;;;;;;;;;;;;;;;5024647;28;19975;-67
2022/03/22 06:49:25;;;;;;;;;;;;;;;;;;5020950;28;19999;-67
2022/03/22 06:51:51;;;;;;;;;;;;;;;;;;5027263;28;20025;-68
2022/03/22 06:54:17;;;;;;;;;;;;;;;;;;5026830;28;20001;-68
2022/03/22 06:56:44;;;;;;;;;;;;;;;;;;5024528;28;20011;-68
2022/03/22 06:59:10;;;;;;;;;;;;;;;;;;5027828;28;20030;-68
2022/03/22 07:01:36;;;;;;;;;;;;;;;;;;5026235;28;20078;-67
2022/03/22 07:04:02;;;;;;;;;;;;;;;;;;5026861;28;19991;-68
2022/03/22 07:06:29;;;;;;;;;;;;;;;;;;5027221;28;20326;-68
2022/03/22 07:08:55;;;;;;;;;;;;;;;;;;5026937;28;20058;-68
2022/03/22 07:14:05;;;;;;;;;;;;;;;;;;5026964;28;19984;-69
2022/03/22 07:16:31;;;;;;;;;;;;;;;;;;5026144;28;19974;-68
2022/03/22 07:18:57;;;;;;;;;;;;;;;;;;5021692;28;19976;-68
2022/03/22 07:21:23;;;;;;;;;;;;;;;;;;5026027;28;19979;-68
2022/03/22 07:23:50;;;;;;;;;;;;;;;;;;5026496;28;19925;-68
2022/03/22 07:26:17;;;;;;;;;;;;;;;;;;5026967;28;19978;-68
2022/03/22 07:28:43;;;;;;;;;;;;;;;;;;5026560;28;20426;-68
2022/03/22 07:31:09;;;;;;;;;;;;;;;;;;5026350;28;20467;-68
2022/03/22 07:33:37;;;;;;;;;;;;;;;;;;5026117;28;20004;-69
2022/03/22 07:36:03;;;;;;;;;;;;;;;;;;5026409;28;19975;-69
2022/03/22 07:38:29;;;;;;;;;;;;;;;;;;5029094;28;20436;-68
2022/03/22 07:40:56;;;;;;;;;;;;;;;;;;5029756;28;19980;-69
2022/03/22 07:43:23;;;;;;;;;;;;;;;;;;4680293;28;10000157;-68
2022/03/22 07:45:49;;;;;;;;;;;;;;;;;;5026065;28;20306;-69
2022/03/22 07:48:16;;;;;;;;;;;;;;;;;;5024217;28;20028;-69
2022/03/22 07:53:26;;;;;;;;;;;;;;;;;;5020079;28;19978;-69
2022/03/22 07:55:52;;;;;;;;;;;;;;;;;;5025778;28;19968;-69
2022/03/22 07:58:18;;;;;;;;;;;;;;;;;;5026500;28;20009;-69
2022/03/22 08:00:45;;;;;;;;;;;;;;;;;;5026344;28;19974;-69
2022/03/22 08:03:13;;;;;;;;;;;;;;;;;;5026009;28;19929;-68
2022/03/22 08:05:39;;;;;;;;;;;;;;;;;;5026679;28;20317;-68
2022/03/22 08:08:05;;;;;;;;;;;;;;;;;;5026613;28;20301;-68
2022/03/22 08:10:32;;;;;;;;;;;;;;;;;;5026073;28;20463;-68
2022/03/22 08:12:58;;;;;;;;;;;;;;;;;;5025950;28;19978;-68
2022/03/22 08:15:24;;;;;;;;;;;;;;;;;;5025971;28;19965;-68
2022/03/22 08:17:50;;;;;;;;;;;;;;;;;;5025764;28;19951;-69
2022/03/22 08:20:19;;;;;;;;;;;;;;;;;;5021816;28;19929;-68
2022/03/22 08:22:45;;;;;;;;;;;;;;;;;;5026491;28;19925;-68
2022/03/22 08:25:11;;;;;;;;;;;;;;;;;;5026433;28;20472;-68
2022/03/22 08:27:37;;;;;;;;;;;;;;;;;;5025955;28;19936;-68
2022/03/22 08:30:04;;;;;;;;;;;;;;;;;;5025943;28;19926;-68
2022/03/22 08:32:30;;;;;;;;;;;;;;;;;;5026253;28;20390;-68
2022/03/22 08:34:56;;;;;;;;;;;;;;;;;;5026031;28;20417;-68
2022/03/22 08:37:22;;;;;;;;;;;;;;;;;;5026255;28;19952;-69
2022/03/22 08:39:48;;;;;;;;;;;;;;;;;;5014825;28;19932;-68
2022/03/22 08:42:14;;;;;;;;;;;;;;;;;;5026087;28;19925;-68
2022/03/22 08:44:40;;;;;;;;;;;;;;;;;;5026701;28;19973;-68
2022/03/22 08:47:07;;;;;;;;;;;;;;;;;;5023322;28;20025;-69
2022/03/22 08:49:34;;;;;;;;;;;;;;;;;;5016868;28;19934;-68
2022/03/22 08:52:00;;;;;;;;;;;;;;;;;;5021301;28;19929;-69
2022/03/22 08:54:27;;;;;;;;;;;;;;;;;;5025013;28;19998;-68
2022/03/22 08:56:53;;;;;;;;;;;;;;;;;;5023811;28;19936;-69
2022/03/22 08:59:19;;;;;;;;;;;;;;;;;;5015259;28;19925;-69
2022/03/22 09:01:45;;;;;;;;;;;;;;;;;;5029488;28;20378;-69
2022/03/22 09:06:55;;;;;;;;;;;;;;;;;;5029356;28;19924;-68
2022/03/22 09:09:22;;;;;;;;;;;;;;;;;;5028999;28;19925;-69
2022/03/22 09:11:48;;;;;;;;;;;;;;;;;;5029573;28;19929;-69
2022/03/22 09:14:14;;;;;;;;;;;;;;;;;;5029170;28;19959;-67
2022/03/22 09:16:40;;;;;;;;;;;;;;;;;;5028974;28;20059;-69
2022/03/22 09:19:06;;;;;;;;;;;;;;;;;;5025809;28;19929;-69
2022/03/22 09:21:32;;;;;;;;;;;;;;;;;;5019563;28;19925;-69
2022/03/22 09:23:58;;;;;;;;;;;;;;;;;;5028369;28;19932;-68
2022/03/22 09:26:25;;;;;;;;;;;;;;;;;;5029208;28;19925;-69
2022/03/22 09:28:52;;;;;;;;;;;;;;;;;;5028979;28;19925;-68
2022/03/22 09:31:18;;;;;;;;;;;;;;;;;;5029342;28;19983;-69
2022/03/22 09:33:44;;;;;;;;;;;;;;;;;;5028315;28;19936;-68
2022/03/22 09:36:10;;;;;;;;;;;;;;;;;;5029258;28;19948;-68
2022/03/22 09:38:37;;;;;;;;;;;;;;;;;;5019688;28;19936;-69
2022/03/22 09:41:04;;;;;;;;;;;;;;;;;;5026808;28;19963;-68
2022/03/22 09:43:33;;;;;;;;;;;;;;;;;;5028629;28;19929;-68
2022/03/22 09:45:59;;;;;;;;;;;;;;;;;;5026033;28;19995;-68
2022/03/22 09:48:25;;;;;;;;;;;;;;;;;;5027765;28;20378;-68
2022/03/22 09:53:35;;;;;;;;;;;;;;;;;;5028210;28;19924;-69
2022/03/22 09:56:01;;;;;;;;;;;;;;;;;;5028513;28;20378;-68
2022/03/22 09:58:27;;;;;;;;;;;;;;;;;;5028418;28;20435;-68
2022/03/22 10:00:54;;;;;;;;;;;;;;;;;;5028934;28;19932;-68
2022/03/22 10:03:20;;;;;;;;;;;;;;;;;;5028568;28;19929;-68
2022/03/22 10:05:47;;;;;;;;;;;;;;;;;;5028637;28;19952;-68
2022/03/22 10:08:13;;;;;;;;;;;;;;;;;;5028751;28;19929;-68
2022/03/22 10:10:39;;;;;;;;;;;;;;;;;;5028874;28;19933;-68
2022/03/22 10:13:05;;;;;;;;;;;;;;;;;;5027965;28;20007;-67
2022/03/22 10:15:31;;;;;;;;;;;;;;;;;;5028522;28;19925;-68
2022/03/22 10:17:58;;;;;;;;;;;;;;;;;;5026718;28;20339;-67
2022/03/22 10:20:24;;;;;;;;;;;;;;;;;;5024993;28;19939;-68
2022/03/22 10:22:50;;;;;;;;;;;;;;;;;;5028009;28;19944;-68
2022/03/22 10:25:16;;;;;;;;;;;;;;;;;;5027754;28;19929;-69
2022/03/22 10:27:42;;;;;;;;;;;;;;;;;;5027874;28;19935;-68
2022/03/22 10:30:09;;;;;;;;;;;;;;;;;;5027297;28;19925;-68
2022/03/22 10:32:35;;;;;;;;;;;;;;;;;;5027722;28;19929;-68
2022/03/22 10:35:01;;;;;;;;;;;;;;;;;;5027492;28;19929;-68
2022/03/22 10:37:27;;;;;;;;;;;;;;;;;;5027865;28;19925;-68
2022/03/22 10:39:53;;;;;;;;;;;;;;;;;;5026807;28;19936;-68
2022/03/22 10:42:19;;;;;;;;;;;;;;;;;;5027346;28;19925;-68
2022/03/22 10:44:46;;;;;;;;;;;;;;;;;;5026724;28;20346;-68
2022/03/22 10:47:12;;;;;;;;;;;;;;;;;;5024780;28;19960;-68
2022/03/22 10:49:38;;;;;;;;;;;;;;;;;;5022807;28;20362;-67
2022/03/22 10:52:04;;;;;;;;;;;;;;;;;;5027146;28;19933;-69
2022/03/22 10:54:30;;;;;;;;;;;;;;;;;;5026868;28;19951;-69
2022/03/22 10:56:57;;;;;;;;;;;;;;;;;;5027189;28;20308;-69
2022/03/22 10:59:23;;;;;;;;;;;;;;;;;;5027282;28;19933;-69
2022/03/22 11:01:55;;;;;;;;;;;;;;;;;;5026908;28;19956;-70
2022/03/22 11:04:21;;;;;;;;;;;;;;;;;;5027322;28;19972;-69
2022/03/22 11:06:48;;;;;;;;;;;;;;;;;;5027010;28;20297;-69
2022/03/22 11:09:14;;;;;;;;;;;;;;;;;;5027110;28;20184;-69
2022/03/22 11:11:40;;;;;;;;;;;;;;;;;;5026350;28;20024;-69
2022/03/22 11:14:06;;;;;;;;;;;;;;;;;;5027469;28;19936;-69
2022/03/22 11:16:32;;;;;;;;;;;;;;;;;;5027390;28;19928;-68
2022/03/22 11:19:00;;;;;;;;;;;;;;;;;;5024569;28;19939;-68
2022/03/22 11:21:26;;;;;;;;;;;;;;;;;;5023570;28;19933;-70
2022/03/22 11:23:52;;;;;;;;;;;;;;;;;;5026930;28;19935;-70
2022/03/22 11:26:19;;;;;;;;;;;;;;;;;;5026845;28;19929;-69
2022/03/22 11:28:45;;;;;;;;;;;;;;;;;;5020636;28;20464;-68
2022/03/22 11:31:13;;;;;;;;;;;;;;;;;;5026372;28;20405;-69
2022/03/22 11:36:25;;;;;;;;;;;;;;;;;;5027031;28;20380;-69
2022/03/22 11:38:51;;;;;;;;;;;;;;;;;;5015112;28;19933;-69
2022/03/22 11:44:01;;;;;;;;;;;;;;;;;;5026757;28;19948;-69
2022/03/22 11:46:27;;;;;;;;;;;;;;;;;;5022744;28;19936;-69
2022/03/22 11:48:53;;;;;;;;;;;;;;;;;;5021634;28;20238;-69
2022/03/22 11:51:19;;;;;;;;;;;;;;;;;;5024094;28;19930;-69
2022/03/22 11:53:46;;;;;;;;;;;;;;;;;;5026189;28;20580;-69
2022/03/22 11:56:12;;;;;;;;;;;;;;;;;;5018851;28;20330;-69
2022/03/22 11:58:38;;;;;;;;;;;;;;;;;;5022379;28;19936;-69
2022/03/22 12:01:04;;;;;;;;;;;;;;;;;;5026400;28;19949;-69
2022/03/22 12:03:30;;;;;;;;;;;;;;;;;;5025700;28;19936;-69
2022/03/22 12:05:58;;;;;;;;;;;;;;;;;;5026214;28;20373;-69
2022/03/22 12:08:25;;;;;;;;;;;;;;;;;;5026176;28;19929;-69
2022/03/22 12:10:51;;;;;;;;;;;;;;;;;;5026959;28;19929;-69
2022/03/22 12:13:17;;;;;;;;;;;;;;;;;;5026748;28;19929;-70
2022/03/22 12:15:43;;;;;;;;;;;;;;;;;;5026746;28;19936;-70
2022/03/22 12:18:10;;;;;;;;;;;;;;;;;;5018067;28;20394;-68
2022/03/22 12:20:36;;;;;;;;;;;;;;;;;;5022212;28;20425;-68
2022/03/22 12:23:03;;;;;;;;;;;;;;;;;;5025938;28;20318;-68
2022/03/22 12:25:29;;;;;;;;;;;;;;;;;;5026130;28;20003;-70
2022/03/22 12:27:56;;;;;;;;;;;;;;;;;;5025856;28;19933;-70
2022/03/22 12:30:24;;;;;;;;;;;;;;;;;;5025688;28;20327;-69
2022/03/22 12:32:50;;;;;;;;;;;;;;;;;;5025789;28;19937;-70
2022/03/22 12:35:16;;;;;;;;;;;;;;;;;;5028019;28;19933;-69
2022/03/22 12:37:42;;;;;;;;;;;;;;;;;;5027521;28;19929;-71
2022/03/22 12:40:08;;;;;;;;;;;;;;;;;;5020922;28;19956;-70
2022/03/22 12:42:34;;;;;;;;;;;;;;;;;;5029618;28;19936;-70
2022/03/22 12:45:00;;;;;;;;;;;;;;;;;;5029899;28;19964;-69
2022/03/22 12:47:27;;;;;;;;;;;;;;;;;;5029534;28;19936;-70
2022/03/22 12:49:53;;;;;;;;;;;;;;;;;;5030679;28;19940;-69
2022/03/22 12:52:19;;;;;;;;;;;;;;;;;;5030940;28;19930;-69
2022/03/22 12:54:45;;;;;;;;;;;;;;;;;;5030243;28;20124;-68
2022/03/22 12:57:12;;;;;;;;;;;;;;;;;;5030898;28;20027;-68
2022/03/22 12:59:38;;;;;;;;;;;;;;;;;;5029751;28;20313;-69
2022/03/22 13:02:06;;;;;;;;;;;;;;;;;;5030381;28;19929;-69
2022/03/22 13:04:32;;;;;;;;;;;;;;;;;;5031191;28;20325;-69
2022/03/22 13:06:59;;;;;;;;;;;;;;;;;;5031305;28;19952;-71
2022/03/22 13:12:09;;;;;;;;;;;;;;;;;;5030715;28;20262;-71
2022/03/22 13:17:18;;;;;;;;;;;;;;;;;;5027695;28;20145;-69
2022/03/22 13:19:45;;;;;;;;;;;;;;;;;;5025008;28;20430;-68
2022/03/22 13:22:11;;;;;;;;;;;;;;;;;;5029330;28;19959;-70
2022/03/22 13:24:37;;;;;;;;;;;;;;;;;;5029342;28;20107;-70
2022/03/22 13:27:05;;;;;;;;;;;;;;;;;;5029221;28;19964;-69
2022/03/22 13:29:32;;;;;;;;;;;;;;;;;;5029287;28;20718;-69
2022/03/22 13:31:58;;;;;;;;;;;;;;;;;;5029083;28;19929;-68
2022/03/22 13:34:24;;;;;;;;;;;;;;;;;;5028670;28;20414;-67
2022/03/22 13:36:50;;;;;;;;;;;;;;;;;;5028996;28;20024;-68
2022/03/22 13:39:16;;;;;;;;;;;;;;;;;;5016891;28;19940;-68
2022/03/22 13:41:42;;;;;;;;;;;;;;;;;;5028597;28;19929;-68
2022/03/22 13:44:09;;;;;;;;;;;;;;;;;;5028475;28;19968;-68
2022/03/22 13:46:35;;;;;;;;;;;;;;;;;;5025029;28;20294;-68
2022/03/22 13:49:01;;;;;;;;;;;;;;;;;;5028021;28;20418;-68
2022/03/22 13:51:29;;;;;;;;;;;;;;;;;;5029076;28;20314;-68
2022/03/22 13:53:57;;;;;;;;;;;;;;;;;;5027965;28;19925;-68
2022/03/22 13:56:23;;;;;;;;;;;;;;;;;;5028246;28;19936;-68
2022/03/22 13:58:49;;;;;;;;;;;;;;;;;;5028943;28;19934;-68
2022/03/22 14:01:16;;;;;;;;;;;;;;;;;;5028465;28;20398;-68
2022/03/22 14:03:42;;;;;;;;;;;;;;;;;;5028674;28;19929;-67
2022/03/22 14:06:08;;;;;;;;;;;;;;;;;;5028792;28;19925;-67
2022/03/22 14:08:36;;;;;;;;;;;;;;;;;;5026141;28;19925;-68
2022/03/22 14:11:02;;;;;;;;;;;;;;;;;;5020805;28;20024;-68
2022/03/22 14:13:29;;;;;;;;;;;;;;;;;;5028560;28;19937;-67
2022/03/22 14:15:55;;;;;;;;;;;;;;;;;;5028045;28;20184;-69
2022/03/22 14:18:21;;;;;;;;;;;;;;;;;;5016745;28;19940;-68
2022/03/22 14:20:47;;;;;;;;;;;;;;;;;;5024368;28;19936;-67
2022/03/22 14:23:13;;;;;;;;;;;;;;;;;;5027675;28;19925;-68
2022/03/22 14:25:40;;;;;;;;;;;;;;;;;;5027863;28;19929;-68
2022/03/22 14:28:06;;;;;;;;;;;;;;;;;;4705791;22;9999807;-70
2022/03/22 14:30:33;;;;;;;;;;;;;;;;;;5068742;28;19924;-70
2022/03/22 14:32:59;;;;;;;;;;;;;;;;;;5068226;28;19928;-71
2022/03/22 14:38:13;;;;;;;;;;;;;;;;;;5069430;28;19936;-71
2022/03/22 14:40:39;;;;;;;;;;;;;;;;;;5056248;28;19932;-70
2022/03/22 14:43:14;;;;;;;;;;;;;;;;;;5070551;28;19944;-70
2022/03/22 14:45:47;;;;;;;;;;;;;;;;;;5055010;28;19999;-70
2022/03/22 14:48:14;;;;;;;;;;;;;;;;;;5069073;28;19925;-68
2022/03/22 14:50:40;;;;;;;;;;;;;;;;;;5064015;28;20011;-69
2022/03/22 14:55:51;;;;;;;;;;;;;;;;;;5057546;28;19919;-69
2022/03/22 15:01:00;;;;;;;;;;;;;;;;;;5051190;28;19958;-69
2022/03/22 15:03:27;;;;;;;;;;;;;;;;;;5050615;28;20202;-72
2022/03/22 15:05:59;;;;;;;;;;;;;;;;;;5050855;28;19925;-69
2022/03/22 15:08:34;;;;;;;;;;;;;;;;;;5050075;28;19970;-70
2022/03/22 15:11:01;;;;;;;;;;;;;;;;;;5050776;28;20449;-69
2022/03/22 15:13:27;;;;;;;;;;;;;;;;;;5050647;28;19925;-69
2022/03/22 15:16:05;;;;;;;;;;;;;;;;;;5050803;28;19931;-69
2022/03/22 15:18:31;;;;;;;;;;;;;;;;;;5067664;28;19951;-69
2022/03/22 15:20:58;;;;;;;;;;;;;;;;;;5066109;28;19932;-69
2022/03/22 15:23:24;;;;;;;;;;;;;;;;;;5051466;28;19987;-68
2022/03/22 15:25:50;;;;;;;;;;;;;;;;;;5050859;28;19943;-69
2022/03/22 15:28:16;;;;;;;;;;;;;;;;;;5056923;28;19925;-67
2022/03/22 15:30:43;;;;;;;;;;;;;;;;;;5050868;28;19932;-70
2022/03/22 15:33:09;;;;;;;;;;;;;;;;;;5050142;28;19929;-68
2022/03/22 15:35:35;;;;;;;;;;;;;;;;;;5050353;28;19924;-69
2022/03/22 15:38:02;;;;;;;;;;;;;;;;;;5049858;28;19929;-68
2022/03/22 15:40:28;;;;;;;;;;;;;;;;;;5050458;28;19932;-68
2022/03/22 15:43:01;;;;;;;;;;;;;;;;;;5050187;28;19971;-68
2022/03/22 15:45:27;;;;;;;;;;;;;;;;;;5050269;28;19925;-68
2022/03/22 15:47:53;;;;;;;;;;;;;;;;;;5067250;28;19928;-69
2022/03/22 15:50:19;;;;;;;;;;;;;;;;;;5065416;28;19928;-68
2022/03/22 15:52:46;;;;;;;;;;;;;;;;;;5050000;28;19925;-69
2022/03/22 15:55:12;;;;;;;;;;;;;;;;;;5051089;28;19955;-69
2022/03/22 15:57:39;;;;;;;;;;;;;;;;;;5061990;28;19968;-68
2022/03/22 16:00:05;;;;;;;;;;;;;;;;;;5050331;28;20501;-69
2022/03/22 16:02:31;;;;;;;;;;;;;;;;;;5050053;28;19952;-70
2022/03/22 16:04:57;;;;;;;;;;;;;;;;;;5052190;28;19925;-69
2022/03/22 16:07:24;;;;;;;;;;;;;;;;;;5062362;28;19929;-68
2022/03/22 16:10:07;;;;;;;;;;;;;;;;;;5053575;28;20244;-68
2022/03/22 16:12:34;;;;;;;;;;;;;;;;;;5056870;28;19925;-68
2022/03/22 16:15:00;;;;;;;;;;;;;;;;;;5057034;28;19925;-69
2022/03/22 16:17:34;;;;;;;;;;;;;;;;;;5066360;28;20020;-68
2022/03/22 16:20:00;;;;;;;;;;;;;;;;;;5073151;28;20333;-69
2022/03/22 16:22:30;;;;;;;;;;;;;;;;;;5066054;28;19948;-68
2022/03/22 16:24:58;;;;;;;;;;;;;;;;;;5056636;28;20416;-69
2022/03/22 16:27:25;;;;;;;;;;;;;;;;;;5061147;28;20396;-68
2022/03/22 16:29:51;;;;;;;;;;;;;;;;;;5057287;28;20313;-68
2022/03/22 16:32:18;;;;;;;;;;;;;;;;;;5056582;28;19925;-70
2022/03/22 16:37:28;;;;;;;;;;;;;;;;;;5056818;28;20385;-67
2022/03/22 16:39:54;;;;;;;;;;;;;;;;;;5055737;28;19925;-70
2022/03/22 16:42:20;;;;;;;;;;;;;;;;;;5056650;28;20046;-69
2022/03/22 16:44:47;;;;;;;;;;;;;;;;;;5065056;28;20424;-68
2022/03/22 16:47:13;;;;;;;;;;;;;;;;;;5076075;28;19924;-68
2022/03/22 16:49:40;;;;;;;;;;;;;;;;;;5072663;28;20385;-68
2022/03/22 16:52:06;;;;;;;;;;;;;;;;;;5060645;28;19929;-68
2022/03/22 16:54:38;;;;;;;;;;;;;;;;;;5058536;28;19925;-69
2022/03/22 16:57:04;;;;;;;;;;;;;;;;;;5070586;28;20393;-68
2022/03/22 16:59:32;;;;;;;;;;;;;;;;;;5056763;28;19924;-68
2022/03/22 17:01:58;;;;;;;;;;;;;;;;;;5056226;28;19925;-69
2022/03/22 17:04:24;;;;;;;;;;;;;;;;;;5055739;28;20378;-68
2022/03/22 17:06:50;;;;;;;;;;;;;;;;;;5056242;28;20376;-68
2022/03/22 17:09:17;;;;;;;;;;;;;;;;;;5055864;28;20321;-69
2022/03/22 17:11:43;;;;;;;;;;;;;;;;;;5056290;28;19983;-67
2022/03/22 17:14:10;;;;;;;;;;;;;;;;;;5055786;28;19925;-68
2022/03/22 17:16:36;;;;;;;;;;;;;;;;;;5058609;28;19925;-68
2022/03/22 17:19:03;;;;;;;;;;;;;;;;;;5065855;28;19924;-69
2022/03/22 17:21:29;;;;;;;;;;;;;;;;;;5066074;28;19929;-68
2022/03/22 17:23:55;;;;;;;;;;;;;;;;;;5052402;28;19932;-67
2022/03/22 17:26:22;;;;;;;;;;;;;;;;;;5053154;28;19925;-68
2022/03/22 17:28:48;;;;;;;;;;;;;;;;;;5059647;28;20316;-67
2022/03/22 17:31:14;;;;;;;;;;;;;;;;;;5053124;28;19978;-68
2022/03/22 17:33:48;;;;;;;;;;;;;;;;;;5052527;28;19956;-66